Kariba International Airport


Codes: FVKB/KAB
Name: Kariba International Airport
City: Kariba
Country: Zimbabwe
Elevation: 1706 ft.

Photos at Kariba International Airport


   Photos courtesy of SpottingLog. You can add your own sightings and photos by signing up for a free trial today.



No photos found.

Weather at Kariba International Airport


Time (UTC)DescriptionTempratureWindCloud coverageVisibilityPressureHumidity
16-Jun-2024 00:00Clear Sky15°C2 mph, NE0%10000m1020hPa55%
16-Jun-2024 03:00Clear Sky14°C2 mph, NE0%10000m1020hPa57%
16-Jun-2024 06:00Clear Sky16°C2 mph, N1%10000m1021hPa52%
16-Jun-2024 09:00Clear Sky24°C2 mph, SW7%10000m1021hPa40%
16-Jun-2024 12:00Scattered Clouds25°C4 mph, SW27%10000m1018hPa40%
16-Jun-2024 15:00Broken Clouds24°C4 mph, N51%10000m1017hPa42%
16-Jun-2024 18:00Scattered Clouds19°C7 mph, NE27%10000m1020hPa61%
16-Jun-2024 21:00Scattered Clouds18°C4 mph, NE41%10000m1020hPa71%
17-Jun-2024 00:00Scattered Clouds16°C4 mph, E25%10000m1020hPa83%
17-Jun-2024 03:00Clear Sky15°C2 mph, NE0%10000m1021hPa86%
17-Jun-2024 06:00Clear Sky17°C2 mph, NE4%10000m1023hPa72%
17-Jun-2024 09:00Clear Sky25°C2 mph, NE0%10000m1021hPa40%
17-Jun-2024 12:00Clear Sky27°C0 mph, W0%10000m1017hPa33%
17-Jun-2024 15:00Clear Sky25°C2 mph, N1%10000m1016hPa36%
17-Jun-2024 18:00Clear Sky20°C4 mph, NE3%10000m1019hPa46%
17-Jun-2024 21:00Scattered Clouds18°C4 mph, NE29%10000m1019hPa54%
18-Jun-2024 00:00Broken Clouds16°C4 mph, NE52%10000m1019hPa60%
18-Jun-2024 03:00Scattered Clouds14°C4 mph, NE35%10000m1019hPa65%
18-Jun-2024 06:00Few Clouds18°C4 mph, NE19%10000m1021hPa54%
18-Jun-2024 09:00Clear Sky26°C2 mph, NE4%10000m1020hPa32%
18-Jun-2024 12:00Clear Sky28°C4 mph, SW5%10000m1015hPa30%
18-Jun-2024 15:00Clear Sky25°C4 mph, SW4%10000m1015hPa38%
18-Jun-2024 18:00Clear Sky20°C4 mph, NE3%10000m1017hPa47%
18-Jun-2024 21:00Clear Sky18°C2 mph, NE0%10000m1018hPa45%
19-Jun-2024 00:00Clear Sky17°C2 mph, NE0%10000m1017hPa48%
19-Jun-2024 03:00Clear Sky15°C2 mph, NE0%10000m1018hPa52%
19-Jun-2024 06:00Clear Sky19°C2 mph, NE0%10000m1019hPa42%
19-Jun-2024 09:00Clear Sky26°C4 mph, SW0%10000m1018hPa29%
19-Jun-2024 12:00Clear Sky27°C7 mph, SW0%10000m1015hPa29%
19-Jun-2024 15:00Clear Sky24°C2 mph, SW0%10000m1014hPa33%
19-Jun-2024 18:00Clear Sky20°C4 mph, E0%10000m1017hPa44%
19-Jun-2024 21:00Clear Sky19°C2 mph, NE0%10000m1017hPa40%
20-Jun-2024 00:00Clear Sky18°C4 mph, NE0%10000m1016hPa40%
20-Jun-2024 03:00Clear Sky16°C2 mph, NE0%10000m1018hPa46%
20-Jun-2024 06:00Clear Sky20°C2 mph, NE0%10000m1020hPa37%
20-Jun-2024 09:00Clear Sky28°C0 mph, NW0%10000m1019hPa27%
20-Jun-2024 12:00Clear Sky29°C0 mph, SW0%10000m1015hPa26%
20-Jun-2024 15:00Clear Sky27°C2 mph, NE0%10000m1014hPa29%
20-Jun-2024 18:00Clear Sky22°C4 mph, NE0%10000m1017hPa41%
20-Jun-2024 21:00Clear Sky20°C2 mph, E0%10000m1018hPa49%